Cameron, Oklahoma
Current Conditions -  °F | °C
As of 3:15 PM on Sunday 23 Nov 2014 (Local Time) from KRKR Reporting Station
Broken Clouds Broken Clouds  
Wind Chill: 69°   Ceiling: 4500
Heat Index: 69°   Visibility: 10mi
Dew Point: 53°   Wind: 15mph
Humidity: 57%   Direction: 220°SW
Pressure: 29.3"   Gusts: 20mph
Location:  35.13°N, 94.53°W
Report Text: KRKR 232115Z AUTO 22013G17KT 10SM SCT036 BKN045 20/12 A2930 RMK AO2 T02040117
Loading
Personal Weather Stations






























Interactive Weather Map New forecast layout! Learn more

10-Day Weather Forecast

Advertisements
Track Severe Weather on mobile